Time;durP1;ratioP1;P1;durP2;ratioP2;P2;SDS_P1;SDS_P2;PMS_P1;PMS_P2;Temp;Humidity;BMP_temperature;BMP_pressure;BME280_temperature;BME280_humidity;BME280_pressure;Samples;Min_cycle;Max_cycle;Signal;HPM_P1;HPM_P2
2023/08/03 00:00:34;;;;;;;13.37;1.90;;;18.40;99.90;;;;;;5069490;28;20310;-65
2023/08/03 00:03:00;;;;;;;5.80;1.73;;;18.30;99.90;;;;;;5069235;28;20190;-67
2023/08/03 00:05:26;;;;;;;11.10;2.13;;;18.40;99.90;;;;;;5069395;28;20244;-65
2023/08/03 00:07:52;;;;;;;10.57;2.17;;;18.40;99.90;;;;;;5069219;28;20192;-65
2023/08/03 00:10:19;;;;;;;9.67;2.90;;;18.40;99.90;;;;;;5068621;28;20207;-65
2023/08/03 00:12:45;;;;;;;11.57;2.30;;;18.50;99.90;;;;;;5068637;28;20423;-65
2023/08/03 00:15:13;;;;;;;8.30;2.10;;;18.50;99.90;;;;;;5068773;28;20969;-66
2023/08/03 00:17:38;;;;;;;10.40;2.17;;;18.50;99.90;;;;;;5069209;28;20846;-65
2023/08/03 00:20:05;;;;;;;9.47;2.30;;;18.50;99.90;;;;;;5068798;28;20431;-65
2023/08/03 00:22:32;;;;;;;13.13;2.50;;;18.50;99.90;;;;;;5069301;28;20188;-65
2023/08/03 00:24:58;;;;;;;10.00;2.23;;;18.50;99.90;;;;;;5068867;28;20510;-65
2023/08/03 00:27:24;;;;;;;11.23;2.33;;;18.50;99.90;;;;;;5068742;28;20425;-66
2023/08/03 00:29:50;;;;;;;12.73;2.50;;;18.40;99.90;;;;;;5068531;28;20191;-67
2023/08/03 00:32:15;;;;;;;8.83;2.33;;;18.40;99.90;;;;;;5068637;28;20436;-65
2023/08/03 00:34:41;;;;;;;6.43;2.10;;;18.40;99.90;;;;;;5068878;28;20691;-65
2023/08/03 00:37:07;;;;;;;14.83;2.77;;;18.40;99.90;;;;;;5068628;28;20687;-65
2023/08/03 00:39:32;;;;;;;8.07;2.43;;;18.40;99.90;;;;;;5068666;28;20190;-66
2023/08/03 00:41:58;;;;;;;10.20;2.07;;;18.40;99.90;;;;;;5068729;28;20218;-65
2023/08/03 00:44:24;;;;;;;10.60;2.20;;;18.40;99.90;;;;;;5068530;28;20215;-65
2023/08/03 00:46:50;;;;;;;5.13;1.50;;;18.40;99.90;;;;;;5068780;28;20188;-64
2023/08/03 00:49:16;;;;;;;10.37;1.90;;;18.40;99.90;;;;;;5068486;28;20242;-64
2023/08/03 00:51:41;;;;;;;9.70;2.20;;;18.40;99.90;;;;;;5068573;28;20433;-65
2023/08/03 00:54:07;;;;;;;7.90;1.90;;;18.40;99.90;;;;;;5068425;28;20225;-65
2023/08/03 00:56:34;;;;;;;11.30;1.80;;;18.50;99.90;;;;;;5068357;28;20193;-66
2023/08/03 00:59:00;;;;;;;8.40;1.60;;;18.50;99.90;;;;;;5068367;28;20181;-65
2023/08/03 01:01:26;;;;;;;6.37;2.07;;;18.50;99.90;;;;;;5068217;28;20501;-65
2023/08/03 01:03:52;;;;;;;9.03;1.80;;;18.50;99.90;;;;;;5068190;28;20471;-64
2023/08/03 01:06:17;;;;;;;9.10;2.47;;;18.50;99.90;;;;;;5068237;28;20357;-64
2023/08/03 01:08:43;;;;;;;5.33;2.00;;;18.50;99.90;;;;;;5068340;28;20231;-64
2023/08/03 01:11:09;;;;;;;5.87;1.80;;;18.50;99.90;;;;;;5068240;28;20545;-65
2023/08/03 01:13:34;;;;;;;7.43;1.80;;;18.50;99.90;;;;;;5068361;28;20184;-65
2023/08/03 01:16:00;;;;;;;11.97;2.07;;;18.50;99.90;;;;;;5068137;28;20235;-65
2023/08/03 01:18:26;;;;;;;3.73;1.30;;;18.50;99.90;;;;;;5068252;28;20620;-64
2023/08/03 01:20:52;;;;;;;9.10;2.50;;;18.60;99.90;;;;;;5067891;28;20210;-64
2023/08/03 01:23:17;;;;;;;9.60;1.97;;;18.60;99.90;;;;;;5070538;28;20193;-64
2023/08/03 01:25:43;;;;;;;6.33;2.10;;;18.50;99.90;;;;;;5071899;28;20512;-64
2023/08/03 01:28:08;;;;;;;11.30;1.90;;;18.60;99.90;;;;;;5071822;28;20179;-64
2023/08/03 01:30:34;;;;;;;6.47;1.87;;;18.60;99.90;;;;;;5071558;28;20220;-65
2023/08/03 01:33:00;;;;;;;5.07;1.20;;;18.60;99.90;;;;;;5072127;28;20188;-66
2023/08/03 01:35:26;;;;;;;6.40;1.57;;;18.60;99.90;;;;;;5071745;28;20216;-66
2023/08/03 01:37:52;;;;;;;9.07;2.07;;;18.50;99.90;;;;;;5071667;28;20225;-65
2023/08/03 01:40:18;;;;;;;6.00;1.43;;;18.60;99.90;;;;;;5071606;28;20477;-65
2023/08/03 01:42:44;;;;;;;7.80;1.30;;;18.50;99.90;;;;;;5053735;28;20234;-65
2023/08/03 01:45:10;;;;;;;4.90;2.07;;;18.50;99.90;;;;;;5071472;28;20474;-65
2023/08/03 01:47:36;;;;;;;6.60;1.80;;;18.50;99.90;;;;;;5071723;28;20425;-65
2023/08/03 01:50:02;;;;;;;5.87;1.60;;;18.40;99.90;;;;;;5071530;28;20183;-65
2023/08/03 01:52:27;;;;;;;8.83;2.27;;;18.40;99.90;;;;;;5071529;28;20173;-65
2023/08/03 01:54:53;;;;;;;9.33;1.60;;;18.40;99.90;;;;;;5071437;28;20868;-65
2023/08/03 01:57:19;;;;;;;4.37;1.43;;;18.40;99.90;;;;;;5071234;28;20216;-65
2023/08/03 01:59:45;;;;;;;7.37;1.50;;;18.40;99.90;;;;;;5071604;28;20182;-65
2023/08/03 02:02:11;;;;;;;8.20;2.00;;;18.30;99.90;;;;;;5071235;28;20282;-65
2023/08/03 02:04:37;;;;;;;5.73;1.73;;;18.40;99.90;;;;;;5071276;28;20490;-65
2023/08/03 02:07:14;;;;;;;5.60;1.70;;;18.40;99.90;;;;;;5071215;28;20409;-65
2023/08/03 02:09:40;;;;;;;9.23;2.00;;;18.30;99.90;;;;;;5071112;28;20224;-64
2023/08/03 02:12:06;;;;;;;7.50;1.73;;;18.30;99.90;;;;;;5071275;28;21236;-64
2023/08/03 02:14:31;;;;;;;7.20;1.60;;;18.30;99.90;;;;;;5071268;28;20281;-64
2023/08/03 02:16:57;;;;;;;6.77;1.80;;;18.30;99.90;;;;;;5071157;28;20972;-64
2023/08/03 02:19:22;;;;;;;5.93;1.60;;;18.30;99.90;;;;;;5071144;28;20659;-64
2023/08/03 02:21:48;;;;;;;4.13;1.27;;;18.30;99.90;;;;;;5070909;28;20208;-64
2023/08/03 02:24:13;;;;;;;9.10;1.60;;;18.30;99.90;;;;;;5070924;28;20225;-64
2023/08/03 02:26:39;;;;;;;5.60;1.63;;;18.30;99.90;;;;;;5071317;28;20181;-64
2023/08/03 02:29:04;;;;;;;4.33;1.50;;;18.30;99.90;;;;;;5071121;28;20183;-64
2023/08/03 02:31:30;;;;;;;6.87;1.57;;;18.30;99.90;;;;;;5070685;28;20725;-64
2023/08/03 02:33:55;;;;;;;4.93;1.23;;;18.30;99.90;;;;;;5070049;28;20326;-65
2023/08/03 02:36:21;;;;;;;5.40;1.37;;;18.30;99.90;;;;;;5070996;28;20182;-65
2023/08/03 02:38:47;;;;;;;6.70;1.40;;;18.30;99.90;;;;;;5071020;28;20625;-65
2023/08/03 02:41:12;;;;;;;13.73;1.90;;;18.30;99.90;;;;;;5070979;28;20221;-65
2023/08/03 02:43:38;;;;;;;4.93;1.40;;;18.20;99.90;;;;;;5071088;28;20287;-66
2023/08/03 02:46:03;;;;;;;8.33;1.50;;;18.20;99.90;;;;;;5070899;28;20670;-65
2023/08/03 02:48:29;;;;;;;12.07;1.70;;;18.20;99.90;;;;;;5071071;28;20183;-65
2023/08/03 02:50:54;;;;;;;5.57;2.30;;;18.20;99.90;;;;;;5052876;28;20221;-67
2023/08/03 02:53:20;;;;;;;6.30;1.60;;;18.20;99.90;;;;;;5071080;28;20282;-65
2023/08/03 02:55:45;;;;;;;9.10;1.97;;;18.20;99.90;;;;;;5071304;28;20194;-65
2023/08/03 02:58:11;;;;;;;8.10;1.40;;;18.20;99.90;;;;;;5071076;28;20194;-65
2023/08/03 03:00:36;;;;;;;6.90;1.60;;;18.10;99.90;;;;;;5071083;28;20677;-64
2023/08/03 03:03:02;;;;;;;8.90;1.73;;;18.10;99.90;;;;;;5071343;28;20191;-65
2023/08/03 03:05:28;;;;;;;5.63;1.70;;;18.10;99.90;;;;;;5071080;28;20222;-65
2023/08/03 03:07:53;;;;;;;10.30;2.33;;;18.10;99.90;;;;;;5070992;28;20183;-66
2023/08/03 03:10:19;;;;;;;6.10;1.27;;;18.10;99.90;;;;;;5070982;28;20206;-66
2023/08/03 03:12:44;;;;;;;8.63;2.17;;;18.10;99.90;;;;;;5070818;28;20504;-65
2023/08/03 03:15:10;;;;;;;9.00;1.70;;;18.10;99.90;;;;;;5070922;28;20190;-65
2023/08/03 03:17:36;;;;;;;8.80;1.67;;;18.00;99.90;;;;;;5070679;28;20563;-65
2023/08/03 03:20:03;;;;;;;6.93;1.47;;;18.00;99.90;;;;;;5070521;28;20190;-66
2023/08/03 03:22:28;;;;;;;9.23;1.90;;;18.00;99.90;;;;;;5070404;28;20280;-66
2023/08/03 03:24:54;;;;;;;9.83;1.57;;;18.10;99.90;;;;;;5070179;28;20610;-65
2023/08/03 03:27:19;;;;;;;7.57;1.47;;;18.00;99.90;;;;;;5070342;28;20194;-65
2023/08/03 03:29:45;;;;;;;6.40;2.50;;;18.00;99.90;;;;;;5070226;28;20279;-65
2023/08/03 03:32:10;;;;;;;8.40;1.60;;;17.90;99.90;;;;;;5070472;28;20674;-65
2023/08/03 03:34:36;;;;;;;8.70;1.70;;;17.90;99.90;;;;;;5070527;28;20278;-65
2023/08/03 03:37:01;;;;;;;10.07;1.90;;;17.90;99.90;;;;;;5070298;28;20199;-65
2023/08/03 03:39:29;;;;;;;8.50;1.77;;;17.90;99.90;;;;;;5070372;28;20194;-66
2023/08/03 03:41:54;;;;;;;4.87;1.50;;;17.90;99.90;;;;;;5070321;28;20226;-66
2023/08/03 03:44:20;;;;;;;8.97;1.17;;;17.90;99.90;;;;;;5069883;28;20500;-65
2023/08/03 03:46:45;;;;;;;12.37;1.73;;;17.80;99.90;;;;;;5070024;28;20183;-65
2023/08/03 03:49:11;;;;;;;4.50;1.23;;;17.80;99.90;;;;;;5051636;28;21002;-66
2023/08/03 03:51:37;;;;;;;4.27;1.20;;;17.90;99.90;;;;;;5069460;28;20310;-66
2023/08/03 03:54:02;;;;;;;6.23;1.20;;;17.80;99.90;;;;;;5069305;28;20195;-65
2023/08/03 03:56:28;;;;;;;4.40;0.97;;;17.80;99.90;;;;;;5069416;28;20249;-65
2023/08/03 03:58:53;;;;;;;2.30;0.77;;;17.80;99.90;;;;;;5069545;28;20221;-65
2023/08/03 04:01:19;;;;;;;3.10;1.17;;;17.70;99.90;;;;;;5069486;28;20282;-65
2023/08/03 04:03:44;;;;;;;8.33;1.10;;;17.70;99.90;;;;;;5069106;28;20206;-65
2023/08/03 04:06:10;;;;;;;1.90;0.70;;;17.70;99.90;;;;;;5069198;28;20614;-65
2023/08/03 04:08:36;;;;;;;4.50;1.20;;;17.60;99.90;;;;;;5069062;28;20265;-65
2023/08/03 04:11:01;;;;;;;5.10;1.10;;;17.60;99.90;;;;;;5069084;28;20211;-65
2023/08/03 04:13:27;;;;;;;2.93;0.77;;;17.50;99.90;;;;;;5069013;28;20190;-65
2023/08/03 04:15:52;;;;;;;4.87;0.80;;;17.50;99.90;;;;;;5068845;28;20186;-65
2023/08/03 04:18:18;;;;;;;2.20;0.60;;;17.40;99.90;;;;;;5069013;28;20192;-65
2023/08/03 04:20:43;;;;;;;3.97;0.80;;;17.30;99.90;;;;;;5069021;28;20593;-65
2023/08/03 04:23:09;;;;;;;4.40;1.00;;;17.30;99.90;;;;;;5069309;28;20192;-64
2023/08/03 04:25:35;;;;;;;8.43;1.10;;;17.20;99.90;;;;;;5051027;28;20270;-64
2023/08/03 04:28:00;;;;;;;4.73;0.93;;;17.30;99.90;;;;;;5051029;28;20286;-65
2023/08/03 04:30:26;;;;;;;3.33;1.17;;;17.30;99.90;;;;;;5068273;28;20262;-64
2023/08/03 04:32:52;;;;;;;4.47;0.90;;;17.20;99.90;;;;;;5067770;28;20209;-64
2023/08/03 04:35:17;;;;;;;5.83;1.80;;;17.30;99.90;;;;;;5067283;28;20691;-65
2023/08/03 04:37:43;;;;;;;3.07;1.10;;;17.20;99.90;;;;;;5066640;28;20234;-64
2023/08/03 04:40:08;;;;;;;4.60;0.93;;;17.20;99.90;;;;;;5067037;28;20685;-65
2023/08/03 04:42:34;;;;;;;2.60;0.80;;;17.30;99.90;;;;;;5067038;28;20286;-65
2023/08/03 04:44:59;;;;;;;1.37;0.60;;;17.20;99.90;;;;;;5067037;28;20233;-64
2023/08/03 04:47:25;;;;;;;3.20;0.97;;;17.20;99.90;;;;;;5066953;28;20197;-63
2023/08/03 04:49:51;;;;;;;4.10;0.63;;;17.20;99.90;;;;;;5067689;28;20183;-64
2023/08/03 04:52:16;;;;;;;6.10;1.30;;;17.20;99.90;;;;;;5067433;28;20319;-64
2023/08/03 04:54:42;;;;;;;3.47;0.70;;;17.20;99.90;;;;;;5067547;28;20189;-65
2023/08/03 04:57:07;;;;;;;2.90;0.80;;;17.10;99.90;;;;;;5067002;28;20241;-65
2023/08/03 04:59:33;;;;;;;1.73;0.70;;;17.10;99.90;;;;;;5067524;28;20181;-66
2023/08/03 05:01:58;;;;;;;4.43;0.83;;;17.10;99.90;;;;;;5067455;28;20695;-65
2023/08/03 05:04:24;;;;;;;4.80;1.03;;;17.10;99.90;;;;;;5067944;28;20206;-65
2023/08/03 05:06:51;;;;;;;7.33;1.00;;;17.10;99.90;;;;;;5067526;28;20266;-65
2023/08/03 05:09:16;;;;;;;8.40;1.10;;;17.10;99.90;;;;;;5067439;28;20264;-65
2023/08/03 05:11:42;;;;;;;3.60;1.07;;;17.20;99.90;;;;;;5066749;28;20537;-64
2023/08/03 05:14:07;;;;;;;3.77;1.13;;;17.20;99.90;;;;;;5067249;28;20180;-65
2023/08/03 05:16:33;;;;;;;2.77;0.80;;;17.20;99.90;;;;;;5066951;28;20190;-65
2023/08/03 05:18:58;;;;;;;2.17;0.93;;;17.20;99.90;;;;;;5066920;28;20184;-65
2023/08/03 05:21:24;;;;;;;6.23;1.17;;;17.30;99.90;;;;;;5066454;28;20215;-65
2023/08/03 05:23:49;;;;;;;5.00;1.17;;;17.30;99.90;;;;;;5066658;28;20215;-64
2023/08/03 05:26:15;;;;;;;3.57;0.97;;;17.30;99.90;;;;;;5066547;28;20281;-65
2023/08/03 05:28:41;;;;;;;4.20;1.20;;;17.30;99.90;;;;;;5066883;28;20206;-65
2023/08/03 05:31:06;;;;;;;3.40;0.80;;;17.30;99.90;;;;;;5066402;28;20661;-66
2023/08/03 05:33:35;;;;;;;6.27;0.90;;;17.30;99.90;;;;;;5066651;28;20185;-64
2023/08/03 05:36:02;;;;;;;6.13;0.70;;;17.40;99.90;;;;;;5066400;28;20182;-64
2023/08/03 05:38:28;;;;;;;1.93;0.70;;;17.50;99.90;;;;;;5066256;28;20417;-63
2023/08/03 05:40:53;;;;;;;4.63;1.00;;;17.60;99.90;;;;;;5066259;28;20432;-64
2023/08/03 05:43:24;;;;;;;2.77;0.77;;;17.60;99.90;;;;;;5066420;28;20183;-64
2023/08/03 05:45:56;;;;;;;7.03;0.67;;;17.70;99.90;;;;;;5066248;28;20305;-65
2023/08/03 05:48:21;;;;;;;5.80;1.13;;;17.70;99.90;;;;;;5066355;28;20409;-65
2023/08/03 05:50:51;;;;;;;4.53;1.07;;;17.70;99.90;;;;;;5066245;28;20455;-65
2023/08/03 05:53:18;;;;;;;11.93;1.10;;;17.90;99.90;;;;;;5066356;28;20186;-64
2023/08/03 05:55:45;;;;;;;4.87;1.07;;;17.90;99.90;;;;;;5066244;28;20423;-64
2023/08/03 05:58:13;;;;;;;5.70;1.00;;;18.00;99.90;;;;;;5048143;28;20474;-64
2023/08/03 06:00:41;;;;;;;4.90;1.27;;;18.10;99.90;;;;;;5066080;28;20470;-64
2023/08/03 06:03:12;;;;;;;2.37;1.13;;;18.30;99.90;;;;;;5066228;28;20425;-64
2023/08/03 06:05:38;;;;;;;2.77;0.70;;;18.30;99.90;;;;;;5066020;28;20494;-65
2023/08/03 06:08:14;;;;;;;2.50;0.90;;;18.30;99.90;;;;;;5066449;28;20821;-65
2023/08/03 06:10:39;;;;;;;5.30;1.10;;;18.20;99.90;;;;;;5069032;28;20990;-65
2023/08/03 06:13:12;;;;;;;6.27;1.70;;;18.20;99.90;;;;;;5069624;28;20421;-65
2023/08/03 06:15:38;;;;;;;2.50;1.00;;;18.20;99.90;;;;;;5069692;28;20189;-65
2023/08/03 06:18:05;;;;;;;3.40;0.80;;;18.40;99.90;;;;;;5069813;28;20534;-65
2023/08/03 06:20:32;;;;;;;4.17;0.90;;;18.50;99.90;;;;;;5069571;28;20516;-65
2023/08/03 06:23:03;;;;;;;1.93;1.10;;;18.50;99.90;;;;;;5069295;28;20427;-64
2023/08/03 06:25:28;;;;;;;2.10;0.80;;;18.50;99.90;;;;;;5069356;28;20557;-65
2023/08/03 06:27:55;;;;;;;5.83;1.10;;;18.50;99.90;;;;;;5051104;28;20428;-65
2023/08/03 06:30:21;;;;;;;3.73;0.90;;;18.50;99.90;;;;;;5069250;28;20252;-65
2023/08/03 06:32:47;;;;;;;4.20;0.87;;;18.50;99.90;;;;;;5069313;28;20912;-64
2023/08/03 06:35:34;;;;;;;2.97;1.10;;;18.50;99.90;;;;;;5069703;28;20695;-65
2023/08/03 06:38:00;;;;;;;2.30;0.93;;;18.40;99.90;;;;;;5069233;28;20193;-64
2023/08/03 06:40:26;;;;;;;5.70;0.97;;;18.30;99.90;;;;;;5050840;28;20485;-64
2023/08/03 06:42:52;;;;;;;7.33;1.20;;;18.30;99.90;;;;;;5068965;28;20874;-65
2023/08/03 06:45:17;;;;;;;8.83;1.10;;;18.20;99.90;;;;;;5069044;28;20268;-64
2023/08/03 06:47:43;;;;;;;1.93;0.80;;;18.30;99.90;;;;;;5068917;28;20235;-64
2023/08/03 06:50:09;;;;;;;2.90;1.10;;;18.30;99.90;;;;;;5068945;28;20304;-65
2023/08/03 06:52:35;;;;;;;2.03;0.80;;;18.40;99.90;;;;;;5068839;28;20186;-63
2023/08/03 06:55:01;;;;;;;6.43;1.00;;;18.40;99.90;;;;;;5069075;28;20427;-64
2023/08/03 06:57:26;;;;;;;5.53;0.70;;;18.40;99.90;;;;;;5068886;28;20432;-65
2023/08/03 06:59:55;;;;;;;4.13;0.90;;;18.40;99.90;;;;;;5069057;28;20208;-64
2023/08/03 07:02:21;;;;;;;5.83;1.10;;;18.40;99.90;;;;;;5068712;28;20736;-64
2023/08/03 07:04:47;;;;;;;4.27;1.00;;;18.40;99.90;;;;;;5068686;28;20471;-65
2023/08/03 07:07:14;;;;;;;4.00;0.93;;;18.40;99.90;;;;;;5068763;28;20456;-64
2023/08/03 07:09:40;;;;;;;2.60;0.70;;;18.50;99.90;;;;;;5068822;28;20310;-64
2023/08/03 07:12:09;;;;;;;3.83;0.80;;;18.40;99.90;;;;;;5068787;28;20513;-65
2023/08/03 07:14:35;;;;;;;4.57;1.13;;;18.50;99.90;;;;;;5068740;28;20200;-64
2023/08/03 07:17:00;;;;;;;2.30;0.70;;;18.60;99.90;;;;;;5050445;28;20864;-65
2023/08/03 07:19:26;;;;;;;2.57;0.70;;;18.80;99.90;;;;;;5068434;28;20633;-65
2023/08/03 07:21:51;;;;;;;3.37;0.90;;;18.80;99.90;;;;;;5068283;28;20251;-65
2023/08/03 07:24:17;;;;;;;4.97;1.10;;;18.80;99.90;;;;;;5068410;28;20209;-65
2023/08/03 07:26:42;;;;;;;3.40;0.90;;;18.70;99.90;;;;;;5068395;28;20279;-65
2023/08/03 07:29:08;;;;;;;2.17;1.20;;;18.70;99.90;;;;;;5068356;28;20200;-65
2023/08/03 07:31:34;;;;;;;3.90;0.97;;;18.70;99.90;;;;;;5068784;28;20211;-65
2023/08/03 07:33:59;;;;;;;4.57;1.23;;;18.60;99.90;;;;;;5068584;28;20186;-65
2023/08/03 07:36:25;;;;;;;2.13;0.80;;;18.60;99.90;;;;;;5068783;28;20185;-65
2023/08/03 07:38:52;;;;;;;4.60;0.90;;;18.50;99.90;;;;;;5068985;28;20189;-66
2023/08/03 07:41:18;;;;;;;3.90;0.97;;;18.50;99.90;;;;;;5068735;28;20263;-64
2023/08/03 07:43:44;;;;;;;5.70;1.67;;;18.50;99.90;;;;;;5068886;28;20430;-65
2023/08/03 07:46:09;;;;;;;2.80;1.10;;;18.60;99.90;;;;;;5068632;28;20189;-64
2023/08/03 07:48:35;;;;;;;3.50;0.83;;;18.60;99.90;;;;;;5068544;28;20185;-66
2023/08/03 07:51:13;;;;;;;4.03;1.33;;;18.70;99.90;;;;;;5068380;28;20629;-65
2023/08/03 07:53:38;;;;;;;3.00;0.80;;;18.70;99.90;;;;;;5067944;28;20186;-65
2023/08/03 07:56:12;;;;;;;5.07;1.00;;;18.70;99.90;;;;;;5068140;28;20415;-64
2023/08/03 07:58:38;;;;;;;4.83;0.70;;;18.80;99.90;;;;;;5068077;28;20182;-64
2023/08/03 08:01:07;;;;;;;2.13;0.70;;;18.80;99.90;;;;;;5067953;28;20448;-65
2023/08/03 08:03:34;;;;;;;3.13;0.90;;;18.80;99.90;;;;;;5067844;28;20181;-64
2023/08/03 08:06:10;;;;;;;6.60;1.30;;;18.90;99.90;;;;;;5068070;28;20486;-64
2023/08/03 08:08:37;;;;;;;2.97;0.77;;;18.90;99.90;;;;;;5068217;28;20421;-64
2023/08/03 08:11:03;;;;;;;4.50;0.70;;;18.80;99.90;;;;;;5068138;28;20441;-64
2023/08/03 08:13:29;;;;;;;4.10;0.97;;;18.90;99.90;;;;;;5068172;28;20424;-64
2023/08/03 08:16:07;;;;;;;3.17;1.10;;;19.00;99.90;;;;;;5068383;28;20933;-65
2023/08/03 08:18:34;;;;;;;3.37;0.93;;;19.00;99.90;;;;;;5068076;28;20936;-65
2023/08/03 08:21:02;;;;;;;2.17;0.77;;;19.10;99.90;;;;;;5067981;28;20943;-64
2023/08/03 08:23:28;;;;;;;1.53;0.70;;;19.20;99.90;;;;;;5067912;28;20480;-65
2023/08/03 08:25:54;;;;;;;3.33;0.63;;;19.30;99.90;;;;;;5067789;28;20998;-65
2023/08/03 08:28:20;;;;;;;2.70;0.63;;;19.30;99.90;;;;;;5067846;28;20423;-64
2023/08/03 08:30:46;;;;;;;2.20;0.87;;;19.20;99.90;;;;;;5067261;28;20824;-65
2023/08/03 08:33:16;;;;;;;1.50;0.70;;;19.40;99.90;;;;;;5067331;28;20214;-63
2023/08/03 08:35:43;;;;;;;2.20;0.90;;;19.50;99.90;;;;;;5067891;28;20472;-63
2023/08/03 08:38:10;;;;;;;4.60;0.80;;;19.60;99.90;;;;;;5067797;28;20558;-64
2023/08/03 08:40:40;;;;;;;1.60;0.70;;;19.60;99.90;;;;;;5049174;28;20452;-63
2023/08/03 08:43:06;;;;;;;3.30;0.97;;;19.60;99.90;;;;;;5067335;28;20424;-65
2023/08/03 08:45:37;;;;;;;2.93;0.70;;;19.50;99.90;;;;;;5067568;28;20467;-65
2023/08/03 08:48:04;;;;;;;2.13;0.73;;;19.40;99.90;;;;;;5067541;28;20456;-65
2023/08/03 08:50:29;;;;;;;2.50;0.70;;;19.50;99.90;;;;;;5067049;28;20454;-66
2023/08/03 08:52:56;;;;;;;3.17;0.80;;;19.40;99.90;;;;;;5067758;28;20428;-64
2023/08/03 08:55:25;;;;;;;2.63;0.60;;;19.40;99.90;;;;;;5067167;28;20440;-64
2023/08/03 08:57:51;;;;;;;4.83;1.40;;;19.40;99.90;;;;;;5067238;28;20874;-64
2023/08/03 09:00:17;;;;;;;2.30;0.80;;;19.40;99.90;;;;;;5067236;28;20734;-64
2023/08/03 09:02:43;;;;;;;1.40;0.80;;;19.50;99.90;;;;;;5067523;28;20908;-64
2023/08/03 09:05:17;;;;;;;2.17;0.83;;;19.50;99.90;;;;;;5068437;28;20502;-64
2023/08/03 09:07:43;;;;;;;3.13;0.50;;;19.50;99.90;;;;;;5067654;28;20416;-63
2023/08/03 09:10:10;;;;;;;3.33;0.90;;;19.40;99.90;;;;;;5049484;28;20990;-65
2023/08/03 09:12:38;;;;;;;4.50;0.80;;;19.50;99.90;;;;;;5067431;28;20445;-64
2023/08/03 09:15:05;;;;;;;5.47;0.57;;;19.50;99.90;;;;;;5067505;28;20425;-63
2023/08/03 09:17:30;;;;;;;1.40;0.60;;;19.40;99.90;;;;;;5067355;28;20428;-65
2023/08/03 09:19:56;;;;;;;4.43;0.70;;;19.40;99.90;;;;;;5067762;28;20413;-64
2023/08/03 09:22:23;;;;;;;1.80;0.57;;;19.40;99.90;;;;;;5067080;28;20452;-64
2023/08/03 09:25:09;;;;;;;2.30;0.83;;;19.40;99.90;;;;;;5067143;28;20224;-63
2023/08/03 09:27:36;;;;;;;2.63;1.07;;;19.40;99.90;;;;;;5066954;28;20436;-64
2023/08/03 09:30:04;;;;;;;2.27;0.83;;;19.40;99.90;;;;;;5067141;28;20467;-66
2023/08/03 09:32:34;;;;;;;3.10;0.70;;;19.50;99.90;;;;;;5067629;28;20438;-64
2023/08/03 09:35:25;;;;;;;3.33;0.90;;;19.60;99.90;;;;;;5067656;28;20966;-64
2023/08/03 09:37:55;;;;;;;2.23;0.70;;;19.50;99.90;;;;;;5067328;28;20421;-65
2023/08/03 09:40:23;;;;;;;4.10;0.70;;;19.40;99.90;;;;;;5067527;28;20444;-65
2023/08/03 09:42:49;;;;;;;3.03;0.80;;;19.50;99.90;;;;;;5067227;28;20531;-64
2023/08/03 09:45:15;;;;;;;8.50;0.97;;;19.40;99.90;;;;;;5070479;28;21157;-64
2023/08/03 09:47:41;;;;;;;2.23;0.40;;;19.70;99.90;;;;;;5052728;28;20191;-64
2023/08/03 09:50:08;;;;;;;8.80;0.83;;;20.10;99.90;;;;;;5070575;28;21023;-65
2023/08/03 09:52:44;;;;;;;3.63;0.63;;;20.70;99.90;;;;;;5070184;28;20863;-65
2023/08/03 09:55:20;;;;;;;3.47;0.50;;;21.00;99.90;;;;;;5070009;28;20436;-65
2023/08/03 09:58:08;;;;;;;2.63;0.70;;;21.10;99.90;;;;;;5070455;28;20470;-65
2023/08/03 10:00:35;;;;;;;3.43;0.77;;;21.90;99.90;;;;;;5069847;28;20501;-65
2023/08/03 10:03:10;;;;;;;2.30;0.53;;;21.70;99.90;;;;;;5069920;28;20523;-65
2023/08/03 10:06:02;;;;;;;1.80;0.50;;;21.60;99.90;;;;;;5051676;28;20467;-65
2023/08/03 10:08:50;;;;;;;1.70;0.50;;;21.60;99.70;;;;;;5058851;28;20434;-66
2023/08/03 10:11:17;;;;;;;1.33;0.60;;;21.50;99.70;;;;;;5069883;28;20441;-65
2023/08/03 10:13:46;;;;;;;2.37;0.80;;;21.30;99.10;;;;;;5069648;28;20425;-65
2023/08/03 10:16:14;;;;;;;1.47;0.43;;;21.50;99.90;;;;;;5069894;28;20768;-65
2023/08/03 10:18:40;;;;;;;4.80;0.60;;;21.70;99.90;;;;;;5069647;28;20470;-65
2023/08/03 10:21:06;;;;;;;2.27;0.50;;;21.90;99.90;;;;;;5069436;28;20483;-65
2023/08/03 10:23:32;;;;;;;2.33;1.20;;;21.80;99.90;;;;;;5051838;28;20469;-64
2023/08/03 10:26:00;;;;;;;2.13;0.50;;;21.70;99.90;;;;;;5070627;28;21045;-65
2023/08/03 10:28:27;;;;;;;2.30;0.83;;;21.60;99.90;;;;;;5069367;28;20268;-65
2023/08/03 10:31:15;;;;;;;0.80;0.50;;;21.60;99.90;;;;;;5069187;28;20465;-64
2023/08/03 10:33:49;;;;;;;1.90;0.60;;;21.40;99.90;;;;;;5069344;28;20434;-65
2023/08/03 10:36:27;;;;;;;1.87;0.77;;;21.10;99.90;;;;;;5050854;28;20482;-66
2023/08/03 10:39:16;;;;;;;4.70;1.33;;;21.00;99.90;;;;;;5069132;28;20857;-65
2023/08/03 10:41:44;;;;;;;1.20;0.50;;;20.90;99.90;;;;;;5069062;28;20959;-65
2023/08/03 10:44:13;;;;;;;2.07;0.70;;;20.70;99.50;;;;;;5069018;28;20465;-64
2023/08/03 10:46:42;;;;;;;0.90;0.57;;;20.50;98.00;;;;;;5069144;28;21019;-66
2023/08/03 10:49:21;;;;;;;3.93;0.70;;;20.40;97.90;;;;;;5069006;28;20420;-64
2023/08/03 10:51:49;;;;;;;3.87;0.77;;;20.30;99.90;;;;;;5068997;28;20454;-65
2023/08/03 10:54:19;;;;;;;3.27;0.67;;;20.20;99.90;;;;;;5068679;28;20415;-64
2023/08/03 10:57:08;;;;;;;2.10;0.70;;;20.00;99.90;;;;;;5068525;28;20432;-64
2023/08/03 10:59:45;;;;;;;1.63;0.67;;;19.90;99.90;;;;;;5068897;28;20513;-64
2023/08/03 11:02:14;;;;;;;1.47;0.63;;;19.70;99.90;;;;;;5068707;28;20451;-64
2023/08/03 11:04:40;;;;;;;2.30;1.07;;;19.70;99.90;;;;;;5068697;28;20974;-64
2023/08/03 11:07:10;;;;;;;1.77;0.60;;;19.70;99.90;;;;;;5068681;28;20897;-64
2023/08/03 11:09:36;;;;;;;3.13;0.60;;;20.20;99.90;;;;;;5068542;28;20413;-65
2023/08/03 11:12:06;;;;;;;2.00;0.73;;;20.50;99.90;;;;;;5068481;28;20433;-65
2023/08/03 11:14:32;;;;;;;2.20;0.77;;;20.50;99.90;;;;;;5068358;28;20417;-65
2023/08/03 11:16:58;;;;;;;1.90;0.60;;;20.60;99.90;;;;;;5068492;28;20452;-65
2023/08/03 11:19:24;;;;;;;3.40;0.80;;;21.10;99.90;;;;;;5068406;28;20265;-65
2023/08/03 11:21:49;;;;;;;2.60;0.63;;;21.40;99.90;;;;;;5068074;28;20222;-65
2023/08/03 11:24:15;;;;;;;4.00;0.97;;;22.20;99.90;;;;;;5068171;28;20514;-64
2023/08/03 11:26:42;;;;;;;1.73;0.70;;;22.30;99.90;;;;;;5068498;28;20215;-65
2023/08/03 11:29:08;;;;;;;4.00;1.00;;;22.40;99.90;;;;;;5068131;28;20179;-65
2023/08/03 11:31:34;;;;;;;2.03;0.60;;;22.20;99.60;;;;;;5068067;28;20448;-65
2023/08/03 11:33:59;;;;;;;1.53;0.50;;;22.20;99.90;;;;;;5068107;28;20425;-65
2023/08/03 11:36:25;;;;;;;2.13;0.93;;;22.50;99.90;;;;;;5068090;28;20215;-65
2023/08/03 11:38:52;;;;;;;4.17;0.90;;;23.00;99.90;;;;;;5067994;28;20395;-65
2023/08/03 11:41:26;;;;;;;1.73;0.70;;;23.50;99.70;;;;;;5067920;28;20214;-65
2023/08/03 11:43:52;;;;;;;3.37;0.70;;;24.00;98.50;;;;;;5067880;28;20980;-65
2023/08/03 11:46:28;;;;;;;2.83;1.10;;;24.30;97.60;;;;;;5067751;28;20417;-65
2023/08/03 11:48:57;;;;;;;4.70;0.80;;;24.50;97.90;;;;;;5067819;28;20266;-65
2023/08/03 11:51:36;;;;;;;2.73;0.70;;;24.20;97.30;;;;;;5067564;28;20948;-65
2023/08/03 11:54:07;;;;;;;2.73;0.70;;;23.70;96.90;;;;;;5067821;28;20422;-64
2023/08/03 11:56:38;;;;;;;1.27;0.60;;;23.60;96.70;;;;;;5067724;28;20536;-64
2023/08/03 11:59:05;;;;;;;1.13;0.63;;;23.20;95.70;;;;;;5067583;28;20986;-64
2023/08/03 12:01:31;;;;;;;2.17;0.80;;;23.40;95.90;;;;;;5067820;28;20779;-65
2023/08/03 12:04:26;;;;;;;2.03;0.50;;;23.10;95.50;;;;;;5067395;28;20441;-65
2023/08/03 12:06:54;;;;;;;2.10;0.70;;;23.00;96.90;;;;;;5065409;28;20485;-65
2023/08/03 12:09:35;;;;;;;2.30;0.60;;;22.90;99.40;;;;;;5067561;28;20456;-65
2023/08/03 12:12:02;;;;;;;5.10;0.80;;;22.70;98.70;;;;;;5067358;28;20541;-65
2023/08/03 12:14:28;;;;;;;1.97;0.80;;;22.60;97.60;;;;;;5067096;28;20418;-67
2023/08/03 12:16:53;;;;;;;2.67;0.60;;;22.60;97.30;;;;;;5067271;28;20904;-65
2023/08/03 12:19:20;;;;;;;2.90;0.70;;;22.60;97.20;;;;;;5067480;28;20193;-65
2023/08/03 12:21:46;;;;;;;2.83;0.90;;;22.80;96.30;;;;;;5066913;28;20214;-65
2023/08/03 12:24:12;;;;;;;1.87;0.67;;;23.00;96.70;;;;;;5067112;28;20473;-65
2023/08/03 12:26:39;;;;;;;3.53;1.73;;;23.10;96.30;;;;;;5067222;28;20424;-65
2023/08/03 12:29:04;;;;;;;8.03;0.73;;;23.10;96.60;;;;;;5067086;28;20626;-65
2023/08/03 12:31:31;;;;;;;2.03;0.53;;;23.00;96.70;;;;;;5067150;28;20461;-65
2023/08/03 12:33:57;;;;;;;3.87;0.70;;;23.00;97.30;;;;;;5066991;28;20191;-65
2023/08/03 12:36:26;;;;;;;1.73;0.40;;;23.10;97.50;;;;;;5066981;28;20451;-65
2023/08/03 12:38:52;;;;;;;5.40;0.83;;;23.00;95.30;;;;;;5067225;28;20455;-65
2023/08/03 12:41:19;;;;;;;0.87;0.60;;;22.90;95.60;;;;;;5066872;28;20436;-65
2023/08/03 12:43:48;;;;;;;1.60;0.60;;;23.20;96.90;;;;;;5067157;28;20506;-66
2023/08/03 12:46:13;;;;;;;8.53;0.80;;;23.10;96.80;;;;;;5067477;28;20920;-65